sensor_id;sensor_type;location;lat;lon;timestamp;pressure;altitude;pressure_sealevel;temperature;humidity
75923;BME280;64602;47.542;19.090;2023-04-24T05:45:58;99461.63;;;13.97;69.81
75923;BME280;64602;47.542;19.090;2023-04-24T05:51:01;99483.81;;;13.90;67.77
75923;BME280;64602;47.542;19.090;2023-04-24T05:56:03;99478.44;;;13.85;67.33
75923;BME280;64602;47.542;19.090;2023-04-24T06:01:05;99463.84;;;13.95;68.19
75923;BME280;64602;47.542;19.090;2023-04-24T06:06:08;99479.22;;;14.23;66.68
75923;BME280;64602;47.542;19.090;2023-04-24T06:11:10;99471.47;;;14.44;65.74
75923;BME280;64602;47.542;19.090;2023-04-24T06:16:12;99475.06;;;14.59;64.56
75923;BME280;64602;47.542;19.090;2023-04-24T06:21:17;99478.91;;;14.58;64.16
75923;BME280;64602;47.542;19.090;2023-04-24T06:26:19;99472.84;;;14.61;63.39
75923;BME280;64602;47.542;19.090;2023-04-24T06:31:22;99468.81;;;14.72;63.27
75923;BME280;64602;47.542;19.090;2023-04-24T06:36:24;99484.97;;;14.68;63.12
75923;BME280;64602;47.542;19.090;2023-04-24T06:41:27;99482.25;;;14.55;63.73
75923;BME280;64602;47.542;19.090;2023-04-24T06:46:29;99481.78;;;14.66;64.61
75923;BME280;64602;47.542;19.090;2023-04-24T06:51:32;99475.97;;;14.54;65.96
75923;BME280;64602;47.542;19.090;2023-04-24T06:56:34;99476.91;;;14.77;65.95
75923;BME280;64602;47.542;19.090;2023-04-24T07:01:37;99467.09;;;14.90;66.03
75923;BME280;64602;47.542;19.090;2023-04-24T07:06:39;99473.28;;;15.09;64.97
75923;BME280;64602;47.542;19.090;2023-04-24T07:11:42;99486.53;;;15.02;64.32
75923;BME280;64602;47.542;19.090;2023-04-24T07:16:44;99467.91;;;15.04;64.61
75923;BME280;64602;47.542;19.090;2023-04-24T07:21:47;99484.59;;;15.16;64.60
75923;BME280;64602;47.542;19.090;2023-04-24T07:26:51;99464.97;;;15.14;64.90
75923;BME280;64602;47.542;19.090;2023-04-24T07:31:53;99472.16;;;15.10;64.66
75923;BME280;64602;47.542;19.090;2023-04-24T07:36:56;99479.81;;;15.36;64.42
75923;BME280;64602;47.542;19.090;2023-04-24T07:41:58;99461.41;;;15.42;63.85
75923;BME280;64602;47.542;19.090;2023-04-24T07:47:58;99466.44;;;16.37;60.84
75923;BME280;64602;47.542;19.090;2023-04-24T07:53:00;99472.00;;;16.38;60.84
75923;BME280;64602;47.542;19.090;2023-04-24T07:58:02;99467.97;;;15.91;62.34
75923;BME280;64602;47.542;19.090;2023-04-24T08:03:04;99471.28;;;16.24;61.98
75923;BME280;64602;47.542;19.090;2023-04-24T08:08:07;99460.34;;;16.33;61.53
75923;BME280;64602;47.542;19.090;2023-04-24T08:13:09;99475.91;;;16.46;61.42
75923;BME280;64602;47.542;19.090;2023-04-24T08:18:13;99462.44;;;16.27;61.79
75923;BME280;64602;47.542;19.090;2023-04-24T08:23:17;99461.13;;;16.24;61.78
75923;BME280;64602;47.542;19.090;2023-04-24T08:28:19;99453.94;;;16.37;62.05
75923;BME280;64602;47.542;19.090;2023-04-24T08:33:23;99472.31;;;16.99;60.96
75923;BME280;64602;47.542;19.090;2023-04-24T08:38:25;99462.44;;;16.58;61.30
75923;BME280;64602;47.542;19.090;2023-04-24T08:43:27;99454.59;;;16.74;60.69
75923;BME280;64602;47.542;19.090;2023-04-24T08:48:30;99474.66;;;17.23;59.72
75923;BME280;64602;47.542;19.090;2023-04-24T08:53:34;99466.09;;;17.25;58.45
75923;BME280;64602;47.542;19.090;2023-04-24T08:58:37;99465.66;;;17.49;57.38
75923;BME280;64602;47.542;19.090;2023-04-24T09:03:40;99461.13;;;17.44;57.06
75923;BME280;64602;47.542;19.090;2023-04-24T09:08:43;99458.09;;;17.98;56.05
75923;BME280;64602;47.542;19.090;2023-04-24T09:13:48;99459.87;;;18.11;55.29
75923;BME280;64602;47.542;19.090;2023-04-24T09:18:50;99451.28;;;18.30;54.39
75923;BME280;64602;47.542;19.090;2023-04-24T09:24:00;99446.44;;;18.83;53.29
75923;BME280;64602;47.542;19.090;2023-04-24T09:29:03;99445.03;;;19.07;52.58
75923;BME280;64602;47.542;19.090;2023-04-24T09:34:06;99450.41;;;19.33;51.72
75923;BME280;64602;47.542;19.090;2023-04-24T09:39:11;99433.91;;;19.75;50.41
75923;BME280;64602;47.542;19.090;2023-04-24T09:44:16;99427.50;;;20.04;48.27
75923;BME280;64602;47.542;19.090;2023-04-24T09:54:27;99424.63;;;20.00;46.39
75923;BME280;64602;47.542;19.090;2023-04-24T09:59:29;99411.44;;;20.52;46.18
75923;BME280;64602;47.542;19.090;2023-04-24T10:04:32;99419.63;;;20.73;44.92
75923;BME280;64602;47.542;19.090;2023-04-24T10:09:34;99398.16;;;20.66;45.04
75923;BME280;64602;47.542;19.090;2023-04-24T10:14:36;99405.75;;;20.81;44.13
75923;BME280;64602;47.542;19.090;2023-04-24T10:19:40;99405.84;;;20.85;44.17
75923;BME280;64602;47.542;19.090;2023-04-24T10:24:44;99418.97;;;20.88;43.59
75923;BME280;64602;47.542;19.090;2023-04-24T10:29:47;99407.88;;;20.51;44.29
75923;BME280;64602;47.542;19.090;2023-04-24T10:34:50;99410.47;;;20.93;43.84
75923;BME280;64602;47.542;19.090;2023-04-24T10:39:52;99394.00;;;20.84;44.41
75923;BME280;64602;47.542;19.090;2023-04-24T10:44:56;99398.03;;;20.75;45.29
75923;BME280;64602;47.542;19.090;2023-04-24T10:50:00;99419.72;;;20.06;46.30
75923;BME280;64602;47.542;19.090;2023-04-24T10:55:02;99406.66;;;19.82;46.66
75923;BME280;64602;47.542;19.090;2023-04-24T11:00:21;99412.41;;;20.22;46.77
75923;BME280;64602;47.542;19.090;2023-04-24T11:05:50;99394.19;;;19.97;46.61
75923;BME280;64602;47.542;19.090;2023-04-24T11:11:19;99404.31;;;19.72;47.26
75923;BME280;64602;47.542;19.090;2023-04-24T11:16:27;99406.59;;;19.91;47.84
75923;BME280;64602;47.542;19.090;2023-04-24T11:26:39;99384.31;;;19.83;48.33
75923;BME280;64602;47.542;19.090;2023-04-24T11:31:44;99376.69;;;20.14;47.56
75923;BME280;64602;47.542;19.090;2023-04-24T11:36:52;99377.25;;;20.19;47.78
75923;BME280;64602;47.542;19.090;2023-04-24T11:42:02;99367.34;;;20.52;46.80
75923;BME280;64602;47.542;19.090;2023-04-24T11:47:05;99359.94;;;20.19;47.14
75923;BME280;64602;47.542;19.090;2023-04-24T11:52:08;99372.84;;;20.39;46.97
75923;BME280;64602;47.542;19.090;2023-04-24T11:57:12;99360.56;;;20.49;47.06
75923;BME280;64602;47.542;19.090;2023-04-24T12:02:24;99350.38;;;20.74;46.77
75923;BME280;64602;47.542;19.090;2023-04-24T12:07:27;99343.78;;;20.54;47.01
75923;BME280;64602;47.542;19.090;2023-04-24T12:12:29;99350.91;;;20.92;46.86
75923;BME280;64602;47.542;19.090;2023-04-24T12:17:33;99341.28;;;20.49;47.82
75923;BME280;64602;47.542;19.090;2023-04-24T12:27:55;99325.78;;;19.65;50.24
75923;BME280;64602;47.542;19.090;2023-04-24T12:32:58;99315.91;;;19.31;51.73
75923;BME280;64602;47.542;19.090;2023-04-24T12:38:12;99308.75;;;19.18;52.51
75923;BME280;64602;47.542;19.090;2023-04-24T12:43:17;99301.03;;;18.90;52.27
75923;BME280;64602;47.542;19.090;2023-04-24T12:48:19;99297.88;;;18.71;53.30
75923;BME280;64602;47.542;19.090;2023-04-24T12:53:22;99288.47;;;18.51;54.06
75923;BME280;64602;47.542;19.090;2023-04-24T12:58:24;99281.59;;;18.36;57.85
75923;BME280;64602;47.542;19.090;2023-04-24T13:03:26;99275.22;;;18.23;58.38
75923;BME280;64602;47.542;19.090;2023-04-24T13:08:29;99275.25;;;18.06;58.00
75923;BME280;64602;47.542;19.090;2023-04-24T13:13:31;99264.69;;;17.87;59.70
75923;BME280;64602;47.542;19.090;2023-04-24T13:18:33;99264.22;;;17.85;59.81
75923;BME280;64602;47.542;19.090;2023-04-24T13:23:35;99251.47;;;17.71;60.44
75923;BME280;64602;47.542;19.090;2023-04-24T13:28:37;99253.19;;;17.93;60.72
75923;BME280;64602;47.542;19.090;2023-04-24T13:33:40;99247.09;;;17.88;61.09
75923;BME280;64602;47.542;19.090;2023-04-24T13:38:44;99240.00;;;17.87;61.03
75923;BME280;64602;47.542;19.090;2023-04-24T13:43:46;99224.69;;;17.60;62.32
75923;BME280;64602;47.542;19.090;2023-04-24T13:48:48;99253.16;;;17.38;62.23
75923;BME280;64602;47.542;19.090;2023-04-24T13:53:50;99242.06;;;17.08;63.36
75923;BME280;64602;47.542;19.090;2023-04-24T13:58:52;99256.59;;;17.00;64.74
75923;BME280;64602;47.542;19.090;2023-04-24T14:03:56;99279.97;;;16.31;70.87
75923;BME280;64602;47.542;19.090;2023-04-24T14:08:59;99279.19;;;15.99;72.50
75923;BME280;64602;47.542;19.090;2023-04-24T14:14:01;99295.41;;;15.65;75.28
75923;BME280;64602;47.542;19.090;2023-04-24T14:19:03;99298.66;;;15.44;76.14
75923;BME280;64602;47.542;19.090;2023-04-24T14:24:07;99306.41;;;15.28;76.75
75923;BME280;64602;47.542;19.090;2023-04-24T14:29:10;99312.19;;;15.27;77.93
75923;BME280;64602;47.542;19.090;2023-04-24T14:34:16;99300.37;;;15.17;78.48
75923;BME280;64602;47.542;19.090;2023-04-24T14:39:18;99294.25;;;15.34;79.83
75923;BME280;64602;47.542;19.090;2023-04-24T14:44:20;99303.19;;;15.49;78.78
75923;BME280;64602;47.542;19.090;2023-04-24T14:49:28;99309.56;;;15.67;79.75
75923;BME280;64602;47.542;19.090;2023-04-24T14:54:30;99311.12;;;15.81;80.84
75923;BME280;64602;47.542;19.090;2023-04-24T14:59:32;99318.25;;;15.83;79.32
75923;BME280;64602;47.542;19.090;2023-04-24T15:04:35;99305.16;;;15.57;79.85
75923;BME280;64602;47.542;19.090;2023-04-24T15:09:38;99308.44;;;15.68;80.12
75923;BME280;64602;47.542;19.090;2023-04-24T15:14:40;99307.47;;;15.64;80.84
75923;BME280;64602;47.542;19.090;2023-04-24T15:19:42;99307.34;;;15.69;77.73
75923;BME280;64602;47.542;19.090;2023-04-24T15:24:44;99300.47;;;16.02;76.95
75923;BME280;64602;47.542;19.090;2023-04-24T15:29:46;99304.28;;;15.93;77.69
75923;BME280;64602;47.542;19.090;2023-04-24T15:34:48;99297.97;;;15.84;77.20
75923;BME280;64602;47.542;19.090;2023-04-24T15:40:06;99293.88;;;15.72;76.90
75923;BME280;64602;47.542;19.090;2023-04-24T15:45:09;99295.50;;;15.73;75.31
75923;BME280;64602;47.542;19.090;2023-04-24T15:50:12;99296.09;;;15.70;76.24
75923;BME280;64602;47.542;19.090;2023-04-24T15:55:15;99293.09;;;15.58;74.96
75923;BME280;64602;47.542;19.090;2023-04-24T16:00:18;99303.41;;;15.38;75.00
75923;BME280;64602;47.542;19.090;2023-04-24T16:05:20;99308.75;;;15.21;75.64
75923;BME280;64602;47.542;19.090;2023-04-24T16:10:23;99323.34;;;15.16;76.62
75923;BME280;64602;47.542;19.090;2023-04-24T16:15:26;99320.06;;;15.06;76.11
75923;BME280;64602;47.542;19.090;2023-04-24T16:20:28;99305.41;;;14.88;76.09
75923;BME280;64602;47.542;19.090;2023-04-24T16:25:30;99307.22;;;14.92;77.26
75923;BME280;64602;47.542;19.090;2023-04-24T16:30:32;99294.41;;;14.79;77.14
75923;BME280;64602;47.542;19.090;2023-04-24T16:35:35;99302.09;;;14.77;78.40
75923;BME280;64602;47.542;19.090;2023-04-24T16:40:37;99289.88;;;14.61;77.98
75923;BME280;64602;47.542;19.090;2023-04-24T16:45:40;99300.50;;;14.48;76.92
75923;BME280;64602;47.542;19.090;2023-04-24T16:50:42;99308.59;;;14.40;77.19
75923;BME280;64602;47.542;19.090;2023-04-24T16:55:44;99304.97;;;14.30;nan
75923;BME280;64602;47.542;19.090;2023-04-24T17:00:47;99307.56;;;14.22;77.92
75923;BME280;64602;47.542;19.090;2023-04-24T17:05:49;99306.66;;;14.13;78.09
75923;BME280;64602;47.542;19.090;2023-04-24T17:10:51;99315.66;;;14.13;78.65
75923;BME280;64602;47.542;19.090;2023-04-24T17:15:54;99311.22;;;14.03;78.70
75923;BME280;64602;47.542;19.090;2023-04-24T17:20:56;99320.50;;;14.02;78.74
75923;BME280;64602;47.542;19.090;2023-04-24T17:25:58;99314.53;;;14.00;78.94
75923;BME280;64602;47.542;19.090;2023-04-24T17:31:00;99324.84;;;14.03;78.93
75923;BME280;64602;47.542;19.090;2023-04-24T17:36:02;99323.13;;;13.94;79.05
75923;BME280;64602;47.542;19.090;2023-04-24T17:41:05;99335.22;;;13.87;78.86
75923;BME280;64602;47.542;19.090;2023-04-24T17:46:07;99322.78;;;13.81;79.23
75923;BME280;64602;47.542;19.090;2023-04-24T17:51:10;99317.19;;;13.73;79.59
75923;BME280;64602;47.542;19.090;2023-04-24T17:56:12;99330.41;;;13.65;79.83
75923;BME280;64602;47.542;19.090;2023-04-24T18:01:14;99339.31;;;13.71;79.64
75923;BME280;64602;47.542;19.090;2023-04-24T18:06:16;99338.37;;;13.62;79.74
75923;BME280;64602;47.542;19.090;2023-04-24T18:11:19;99350.31;;;13.66;79.84
75923;BME280;64602;47.542;19.090;2023-04-24T18:16:21;99339.06;;;13.54;79.47
75923;BME280;64602;47.542;19.090;2023-04-24T18:21:26;99356.00;;;13.51;79.30
75923;BME280;64602;47.542;19.090;2023-04-24T18:26:29;99364.62;;;13.39;79.50
75923;BME280;64602;47.542;19.090;2023-04-24T18:31:32;99351.22;;;13.23;80.38
75923;BME280;64602;47.542;19.090;2023-04-24T18:36:34;99356.50;;;13.15;80.20
75923;BME280;64602;47.542;19.090;2023-04-24T18:41:36;99378.81;;;13.17;80.27
75923;BME280;64602;47.542;19.090;2023-04-24T18:46:38;99379.69;;;13.12;80.47
75923;BME280;64602;47.542;19.090;2023-04-24T18:51:42;99384.41;;;13.07;80.19
75923;BME280;64602;47.542;19.090;2023-04-24T18:56:55;99387.22;;;13.01;79.88
75923;BME280;64602;47.542;19.090;2023-04-24T19:01:57;99385.56;;;13.00;79.96
75923;BME280;64602;47.542;19.090;2023-04-24T19:06:59;99391.63;;;12.97;79.49
75923;BME280;64602;47.542;19.090;2023-04-24T19:12:01;99397.41;;;12.91;79.23
75923;BME280;64602;47.542;19.090;2023-04-24T19:17:04;99393.88;;;12.90;79.49
75923;BME280;64602;47.542;19.090;2023-04-24T19:22:06;99397.78;;;12.84;79.26
75923;BME280;64602;47.542;19.090;2023-04-24T19:27:08;99396.66;;;12.85;79.34
75923;BME280;64602;47.542;19.090;2023-04-24T19:32:10;99401.59;;;12.83;79.42
75923;BME280;64602;47.542;19.090;2023-04-24T19:37:12;99402.47;;;12.78;79.41
75923;BME280;64602;47.542;19.090;2023-04-24T19:42:15;99403.12;;;12.70;79.39
75923;BME280;64602;47.542;19.090;2023-04-24T19:47:18;99383.53;;;12.68;79.20
